Perry County Municipal, IN

6:02 AM CDT on October 23, 2014 (GMT -0500)
KYTC_RWIS US-60 @ mp 13 (Hawesville) | Change Station
CLOSE
Current Station
Personal Weather Station
Location: Cannelton, IN
Elevation: 400 ft
Nearby Weather Stations
Active Advisory: Frost Advisory

Elev 400 ft 37.87 °N, 86.71 °W | Updated 57 minutes ago

Clear
Clear
35 °F
Feels Like 35 °F
N
0
Wind Variable Wind from SSE
Gusts 0.0 mph

Today
High -- | Low -- °F
--% Chance of Precip.
Yesterday
High -- | Low -- °F
Precip. -- in
7:03 AM 5:58 PM
Waning Crescent, 0% visible
Pressure 30.26 in
Visibility 3.0 miles
Clouds Clear
Windchill 35 °F
Dew Point 35 °F
Humidity 100%
Rainfall -999.00 in
Snow Depth Not available.
UV 0 out of 12
Pollen 1.80 out of 12
Air Quality Not available.
Flu Activity Sporadic
METAR KHNB 231055Z AUTO 00000KT 3SM CLR 03/01 A3026 RMK AO1

More Conditions Fewer Conditions

Pressure 30.26 in
Visibility 3.0 miles
Clouds Clear
Windchill 35 °F
Dew Point 35 °F
Humidity 100%
Rainfall -999.00 in
Snow Depth Not available.
UV 0 out of 12
Pollen 1.80 out of 12
Air Quality Not available.
Flu Activity Sporadic
METAR KHNB 231055Z AUTO 00000KT 3SM CLR 03/01 A3026 RMK AO1

More Conditions Fewer Conditions

10-Day Weather Forecast

Almanac

Astronomy

Oct. 23, 2014 Rise Set
Actual Time 7:03 AM CDT 5:58 PM CDT
Civil Twilight 6:36 AM CDT 6:25 PM CDT
Nautical Twilight 6:05 AM CDT 6:55 PM CDT
Astronomical Twilight 5:35 AM CDT 7:26 PM CDT
Moon 6:42 AM CDT 5:59 PM CDT
Length of Visible Light 11h 48m
Length of Day
10h 55m
Tomorrow will be 2m 16s shorter.
Waning Crescent, 0% of the Moon is Illuminated
Today
Waning Crescent
Oct 23
New
Oct 30
First Quarter
Nov 6
Full
Nov 14
Last Quarter

Today's Extremes

State Highs State Lows

Community

WunderPhotos

Upload Photos

1,764,204 photos uploaded!

Nearby

Snow Depth

Station Depth Elevation
No new snow has been reported.

Earthquake Activity

City Distance Mag. Time & Date
No recent earthquake activity has been reported nearby.
Minimum magnitude displayed is 2.5.

Coastal Water Temperatures

Place Temperature
No Stations Reporting

Nearby Weather Stations